createdAt,value
2022-10-06T00:00:37.249Z,97.35
2022-10-06T00:03:03.879Z,97.37
2022-10-06T00:05:31.145Z,96.71
2022-10-06T00:07:57.754Z,96.74
2022-10-06T00:10:24.393Z,96.06
2022-10-06T00:12:51.342Z,96.86
2022-10-06T00:15:19.676Z,96.29
2022-10-06T00:17:46.449Z,97.77
2022-10-06T00:20:12.934Z,98.19
2022-10-06T00:22:41.396Z,98.21
2022-10-06T00:25:08.629Z,97.81
2022-10-06T00:27:47.097Z,96.90
2022-10-06T00:30:15.066Z,97.43
2022-10-06T00:32:41.526Z,97.26
2022-10-06T00:35:09.162Z,97.38
2022-10-06T00:37:36.980Z,96.98
2022-10-06T00:40:09.082Z,97.11
2022-10-06T00:42:48.517Z,96.80
2022-10-06T00:45:16.326Z,97.60
2022-10-06T00:47:42.762Z,98.22
2022-10-06T00:50:11.715Z,98.12
2022-10-06T00:52:39.385Z,97.55
2022-10-06T00:55:09.388Z,96.87
2022-10-06T00:57:37.358Z,96.91
2022-10-06T01:00:06.090Z,96.56
2022-10-06T01:02:37.288Z,96.47
2022-10-06T01:05:05.282Z,96.96
2022-10-06T01:07:32.261Z,97.64
2022-10-06T01:09:59.173Z,98.06
2022-10-06T01:12:27.597Z,97.47
2022-10-06T01:14:54.407Z,96.82
2022-10-06T01:17:36.322Z,96.53
2022-10-06T01:20:09.010Z,96.66
2022-10-06T01:22:35.752Z,96.90
2022-10-06T01:25:03.217Z,96.68
2022-10-06T01:27:30.781Z,96.98
2022-10-06T01:29:57.833Z,96.63
2022-10-06T01:32:25.503Z,97.79
2022-10-06T01:34:52.928Z,98.20
2022-10-06T01:37:21.096Z,98.61
2022-10-06T01:39:47.683Z,99.22
2022-10-06T01:42:14.123Z,98.65
2022-10-06T01:44:40.655Z,98.14
2022-10-06T01:47:07.535Z,97.07
2022-10-06T01:49:34.226Z,97.29
2022-10-06T01:52:01.019Z,97.49
2022-10-06T01:54:27.520Z,98.69
2022-10-06T01:56:55.398Z,98.99
2022-10-06T01:59:21.890Z,99.06
2022-10-06T02:01:48.583Z,98.80
2022-10-06T02:04:15.165Z,98.27
2022-10-06T02:06:41.877Z,98.04
2022-10-06T02:09:08.773Z,97.90
2022-10-06T02:11:38.666Z,97.62
2022-10-06T02:14:05.398Z,97.73
2022-10-06T02:16:32.301Z,97.06
2022-10-06T02:18:58.758Z,98.29
2022-10-06T02:21:25.333Z,97.19
2022-10-06T02:23:51.818Z,98.21
2022-10-06T02:26:19.145Z,97.84
2022-10-06T02:28:47.416Z,97.90
2022-10-06T02:31:18.432Z,97.04
2022-10-06T02:33:45.349Z,96.99
2022-10-06T02:36:13.413Z,97.46
2022-10-06T02:38:41.574Z,97.20
2022-10-06T02:41:10.046Z,97.88
2022-10-06T02:43:37.361Z,97.57
2022-10-06T02:46:13.813Z,96.60
2022-10-06T02:48:45.885Z,97.46
2022-10-06T02:51:15.437Z,97.18
2022-10-06T02:53:43.982Z,97.31
2022-10-06T02:56:11.678Z,97.16
2022-10-06T02:58:42.787Z,97.68
2022-10-06T03:01:17.148Z,97.40
2022-10-06T03:03:43.875Z,97.93
2022-10-06T03:06:23.812Z,98.14
2022-10-06T03:08:58.555Z,98.06
2022-10-06T03:11:26.755Z,98.22
2022-10-06T03:13:53.462Z,100.00
2022-10-06T03:16:21.562Z,99.22
2022-10-06T03:18:49.953Z,98.43
2022-10-06T03:21:20.646Z,98.03
2022-10-06T03:23:48.055Z,97.57
2022-10-06T03:26:15.666Z,97.50
2022-10-06T03:28:42.232Z,97.42
2022-10-06T03:31:08.979Z,97.17
2022-10-06T03:33:35.528Z,98.17
2022-10-06T03:36:03.730Z,97.51
2022-10-06T03:38:31.858Z,97.82
2022-10-06T03:41:02.267Z,97.68
2022-10-06T03:43:28.718Z,96.90
2022-10-06T03:45:56.796Z,97.43
2022-10-06T03:48:23.950Z,98.07
2022-10-06T03:50:54.436Z,97.77
2022-10-06T03:53:25.513Z,97.92
2022-10-06T03:55:59.606Z,98.45
2022-10-06T03:58:27.245Z,97.61
2022-10-06T04:01:01.049Z,97.80
2022-10-06T04:03:27.882Z,98.22
2022-10-06T04:05:56.115Z,98.21
2022-10-06T04:08:24.626Z,98.84
2022-10-06T04:10:51.357Z,98.32
2022-10-06T04:13:21.381Z,97.99
2022-10-06T04:15:48.993Z,97.46
2022-10-06T04:18:15.946Z,97.57
2022-10-06T04:20:42.582Z,97.03
2022-10-06T04:23:09.360Z,97.43
2022-10-06T04:25:35.812Z,97.38
2022-10-06T04:28:02.444Z,97.39
2022-10-06T04:30:29.279Z,97.08
2022-10-06T04:32:55.737Z,97.22
2022-10-06T04:35:23.304Z,97.44
2022-10-06T04:37:50.233Z,97.78
2022-10-06T04:40:16.874Z,97.52
2022-10-06T04:42:43.459Z,96.74
2022-10-06T04:45:13.666Z,96.93
2022-10-06T04:47:41.841Z,96.60
2022-10-06T04:50:09.474Z,96.54
2022-10-06T04:52:36.711Z,96.95
2022-10-06T04:55:03.387Z,97.12
2022-10-06T04:57:29.861Z,96.98
2022-10-06T05:00:15.333Z,97.07
2022-10-06T05:02:44.694Z,97.62
2022-10-06T05:05:11.210Z,98.00
2022-10-06T05:07:37.730Z,98.21
2022-10-06T05:10:04.370Z,97.62
2022-10-06T05:12:31.827Z,96.90
2022-10-06T05:14:58.537Z,97.21
2022-10-06T05:17:25.336Z,97.64
2022-10-06T05:19:53.769Z,97.31
2022-10-06T05:22:20.209Z,96.87
2022-10-06T05:24:46.641Z,97.65
2022-10-06T05:27:13.113Z,97.27
2022-10-06T05:29:39.711Z,97.54
2022-10-06T05:32:08.015Z,97.05
2022-10-06T05:34:36.174Z,98.29
2022-10-06T05:37:02.595Z,99.09
2022-10-06T05:39:29.070Z,99.13
2022-10-06T05:41:57.401Z,99.52
2022-10-06T05:44:24.737Z,98.40
2022-10-06T05:46:51.353Z,98.80
2022-10-06T05:49:18.834Z,99.71
2022-10-06T05:51:53.155Z,99.13
2022-10-06T05:54:24.279Z,100.00
2022-10-06T05:56:50.718Z,100.00
2022-10-06T05:59:17.303Z,99.39
2022-10-06T06:01:44.264Z,98.75
2022-10-06T06:04:18.211Z,99.23
2022-10-06T06:06:54.294Z,99.13
2022-10-06T06:09:23.235Z,100.00
2022-10-06T06:11:54.446Z,100.00
2022-10-06T06:14:47.980Z,99.52
2022-10-06T06:17:18.969Z,100.00
2022-10-06T06:19:45.670Z,100.00
2022-10-06T06:22:12.391Z,100.00
2022-10-06T06:24:42.128Z,100.00
2022-10-06T06:27:09.693Z,100.00
2022-10-06T06:29:36.125Z,97.72
2022-10-06T06:32:02.979Z,96.59
2022-10-06T06:34:30.038Z,95.02
2022-10-06T06:37:01.204Z,91.96
2022-10-06T06:39:32.005Z,91.46
2022-10-06T06:41:58.473Z,89.14
2022-10-06T06:44:45.126Z,87.91
2022-10-06T06:47:20.907Z,86.78
2022-10-06T06:49:49.947Z,85.13
2022-10-06T06:52:16.773Z,84.74
2022-10-06T06:54:43.264Z,84.31
2022-10-06T06:57:13.247Z,83.74
2022-10-06T06:59:39.991Z,83.37
2022-10-06T07:02:09.867Z,82.59
2022-10-06T07:04:38.391Z,78.52
2022-10-06T07:07:07.452Z,78.27
2022-10-06T07:09:36.209Z,75.56
2022-10-06T07:12:06.790Z,74.67
2022-10-06T07:14:33.289Z,75.29
2022-10-06T07:17:19.912Z,75.90
2022-10-06T07:20:07.797Z,75.63
2022-10-06T07:22:53.758Z,73.60
2022-10-06T07:25:26.221Z,70.71
2022-10-06T07:28:00.136Z,69.88
2022-10-06T07:30:40.658Z,69.44
2022-10-06T07:33:11.185Z,70.61
2022-10-06T07:35:39.133Z,67.62
2022-10-06T07:38:08.080Z,67.40
2022-10-06T07:40:50.494Z,65.42
2022-10-06T07:43:23.141Z,62.27
2022-10-06T07:45:51.217Z,61.30
2022-10-06T07:48:31.823Z,61.07
2022-10-06T07:51:03.149Z,59.17
2022-10-06T07:53:36.054Z,58.14
2022-10-06T07:56:08.789Z,55.97
2022-10-06T07:58:41.845Z,55.42
2022-10-06T08:01:09.784Z,55.14
2022-10-06T08:03:40.247Z,56.95
2022-10-06T08:06:06.924Z,58.78
2022-10-06T08:08:37.695Z,56.67
2022-10-06T08:11:05.229Z,58.82
2022-10-06T08:13:34.665Z,54.63
2022-10-06T08:16:08.454Z,56.94
2022-10-06T08:18:46.145Z,56.01
2022-10-06T08:21:14.210Z,52.92
2022-10-06T08:23:42.299Z,54.36
2022-10-06T08:26:10.159Z,52.23
2022-10-06T08:28:37.021Z,53.96
2022-10-06T08:31:07.286Z,52.43
2022-10-06T08:33:35.931Z,50.63
2022-10-06T08:36:08.595Z,51.57
2022-10-06T08:38:36.554Z,51.10
2022-10-06T08:41:23.291Z,52.69
2022-10-06T08:43:59.190Z,53.00
2022-10-06T08:46:28.178Z,52.09
2022-10-06T08:48:54.689Z,48.25
2022-10-06T08:51:21.187Z,50.79
2022-10-06T08:54:05.882Z,48.44
2022-10-06T08:56:44.965Z,50.54
2022-10-06T08:59:12.031Z,49.27
2022-10-06T09:01:41.962Z,49.93
2022-10-06T09:04:10.735Z,51.67
2022-10-06T09:06:38.045Z,51.06
2022-10-06T09:09:25.371Z,51.70
2022-10-06T09:12:00.103Z,47.85
2022-10-06T09:14:33.189Z,48.18
2022-10-06T09:17:02.889Z,46.51
2022-10-06T09:19:55.768Z,46.41
2022-10-06T09:22:23.099Z,48.19
2022-10-06T09:24:56.052Z,46.24
2022-10-06T09:27:24.283Z,46.02
2022-10-06T09:29:51.491Z,46.82
2022-10-06T09:32:18.919Z,45.72
2022-10-06T09:34:52.883Z,48.00
2022-10-06T09:37:19.415Z,45.62
2022-10-06T09:39:48.239Z,44.80
2022-10-06T09:42:23.915Z,45.40
2022-10-06T09:44:50.855Z,44.63
2022-10-06T09:47:22.716Z,47.00
2022-10-06T09:50:11.991Z,43.88
2022-10-06T09:52:39.186Z,42.98
2022-10-06T09:55:13.088Z,46.37
2022-10-06T09:57:47.326Z,43.42
2022-10-06T10:00:43.414Z,42.01
2022-10-06T10:03:13.750Z,40.54
2022-10-06T10:05:46.039Z,40.03
2022-10-06T10:08:23.864Z,41.98
2022-10-06T10:10:51.477Z,39.46
2022-10-06T10:13:20.182Z,40.77
2022-10-06T10:15:58.257Z,40.17
2022-10-06T10:18:30.298Z,39.74
2022-10-06T10:21:01.032Z,38.79
2022-10-06T10:23:33.367Z,39.04
2022-10-06T10:26:02.868Z,37.95
2022-10-06T10:28:35.587Z,37.78
2022-10-06T10:31:09.529Z,38.06
2022-10-06T10:33:54.002Z,40.47
2022-10-06T10:36:40.094Z,34.68
2022-10-06T10:39:11.530Z,34.51
2022-10-06T10:41:42.394Z,33.83
2022-10-06T10:44:10.242Z,33.52
2022-10-06T10:46:40.060Z,33.28
2022-10-06T10:49:21.075Z,32.35
2022-10-06T10:51:50.351Z,32.31
2022-10-06T10:54:21.315Z,32.89
2022-10-06T10:56:49.178Z,34.61
2022-10-06T10:59:19.527Z,35.18
2022-10-06T11:02:05.121Z,35.19
2022-10-06T11:04:31.803Z,36.51
2022-10-06T11:07:04.374Z,37.27
2022-10-06T11:09:54.141Z,34.61
2022-10-06T11:12:55.908Z,34.31
2022-10-06T11:15:46.039Z,35.02
2022-10-06T11:18:28.745Z,34.94
2022-10-06T11:20:58.192Z,35.27
2022-10-06T11:23:31.615Z,37.41
2022-10-06T11:26:05.112Z,37.14
2022-10-06T11:28:39.246Z,34.68
2022-10-06T11:31:09.115Z,35.03
2022-10-06T11:33:41.610Z,33.82
2022-10-06T11:36:13.783Z,31.94
2022-10-06T11:38:44.329Z,31.97
2022-10-06T11:41:21.235Z,31.82
2022-10-06T11:44:23.235Z,33.39
2022-10-06T11:46:52.532Z,31.52
2022-10-06T11:49:34.203Z,30.56
2022-10-06T11:52:08.334Z,32.75
2022-10-06T11:54:44.762Z,32.02
2022-10-06T11:57:29.409Z,32.91
2022-10-06T12:00:17.706Z,34.15
2022-10-06T12:02:47.453Z,34.15
2022-10-06T12:05:54.148Z,34.41
2022-10-06T12:08:08.545Z,35.64
2022-10-06T12:10:35.310Z,37.09
2022-10-06T12:13:51.359Z,36.62
2022-10-06T12:19:22.050Z,38.53
2022-10-06T12:21:53.196Z,37.70
2022-10-06T12:24:28.887Z,37.44
2022-10-06T12:27:07.623Z,37.40
2022-10-06T12:29:38.879Z,37.67
2022-10-06T12:32:24.198Z,36.47
2022-10-06T12:34:57.054Z,37.55
2022-10-06T12:37:32.761Z,36.14
2022-10-06T12:40:18.033Z,36.92
2022-10-06T12:42:44.497Z,38.31
2022-10-06T12:45:16.253Z,39.91
2022-10-06T12:47:44.169Z,39.30
2022-10-06T12:50:22.735Z,38.86
2022-10-06T12:53:05.456Z,38.04
2022-10-06T12:55:40.974Z,37.05
2022-10-06T12:58:17.942Z,38.55
2022-10-06T13:00:44.958Z,37.42
2022-10-06T13:03:19.259Z,35.78
2022-10-06T13:05:50.553Z,36.09
2022-10-06T13:08:25.026Z,36.06
2022-10-06T13:10:51.840Z,37.47
2022-10-06T13:13:24.193Z,36.73
2022-10-06T13:15:52.217Z,36.08
2022-10-06T13:18:19.602Z,35.99
2022-10-06T13:20:50.412Z,36.38
2022-10-06T13:23:25.963Z,35.85
2022-10-06T13:25:57.663Z,36.58
2022-10-06T13:28:25.972Z,35.55
2022-10-06T13:30:52.630Z,35.85
2022-10-06T13:33:19.655Z,35.25
2022-10-06T13:35:48.335Z,34.98
2022-10-06T13:38:14.863Z,34.51
2022-10-06T13:40:44.971Z,34.33
2022-10-06T13:43:14.600Z,35.46
2022-10-06T13:45:42.077Z,36.19
2022-10-06T13:48:15.132Z,35.48
2022-10-06T13:50:46.042Z,34.73
2022-10-06T13:53:26.719Z,35.42
2022-10-06T13:55:53.886Z,35.48
2022-10-06T13:58:25.311Z,36.89
2022-10-06T14:00:55.937Z,36.77
2022-10-06T14:03:23.351Z,36.82
2022-10-06T14:05:50.887Z,37.42
2022-10-06T14:08:24.076Z,37.74
2022-10-06T14:10:52.880Z,37.31
2022-10-06T14:13:27.415Z,37.87
2022-10-06T14:15:58.416Z,38.23
2022-10-06T14:18:26.789Z,38.20
2022-10-06T14:20:54.403Z,38.28
2022-10-06T14:23:39.667Z,38.87
2022-10-06T14:26:06.603Z,38.73
2022-10-06T14:28:33.183Z,38.85
2022-10-06T14:30:59.715Z,38.69
2022-10-06T14:33:26.610Z,39.07
2022-10-06T14:35:53.038Z,40.52
2022-10-06T14:38:19.745Z,42.21
2022-10-06T14:40:46.158Z,41.98
2022-10-06T14:43:12.923Z,41.24
2022-10-06T14:45:43.284Z,41.54
2022-10-06T14:48:10.544Z,41.06
2022-10-06T14:50:37.456Z,43.16
2022-10-06T14:53:04.224Z,43.30
2022-10-06T14:55:30.871Z,43.57
2022-10-06T14:57:57.654Z,41.86
2022-10-06T15:00:24.415Z,43.70
2022-10-06T15:02:50.930Z,44.92
2022-10-06T15:05:17.429Z,46.53
2022-10-06T15:08:02.563Z,48.80
2022-10-06T15:10:30.205Z,50.39
2022-10-06T15:12:57.074Z,50.80
2022-10-06T15:15:23.593Z,50.49
2022-10-06T15:17:50.107Z,51.16
2022-10-06T15:20:17.285Z,52.87
2022-10-06T15:22:44.366Z,52.94
2022-10-06T15:25:33.458Z,51.85
2022-10-06T15:28:21.272Z,51.78
2022-10-06T15:30:50.084Z,53.46
2022-10-06T15:33:17.176Z,54.36
2022-10-06T15:35:48.725Z,55.00
2022-10-06T15:38:15.178Z,54.09
2022-10-06T15:40:41.594Z,55.57
2022-10-06T15:43:08.011Z,56.31
2022-10-06T15:45:34.489Z,57.72
2022-10-06T15:48:00.892Z,58.91
2022-10-06T15:50:27.330Z,60.34
2022-10-06T15:52:53.719Z,60.79
2022-10-06T15:55:20.241Z,61.64
2022-10-06T15:57:46.646Z,61.94
2022-10-06T16:00:13.266Z,62.10
2022-10-06T16:02:40.140Z,64.37
2022-10-06T16:05:06.758Z,67.37
2022-10-06T16:07:34.022Z,69.23
2022-10-06T16:10:00.430Z,69.81
2022-10-06T16:12:28.471Z,69.62
2022-10-06T16:14:55.102Z,70.10
2022-10-06T16:17:21.503Z,71.69
2022-10-06T16:19:48.042Z,71.74
2022-10-06T16:22:16.132Z,73.42
2022-10-06T16:24:42.623Z,74.76
2022-10-06T16:27:13.001Z,75.72
2022-10-06T16:29:39.580Z,75.22
2022-10-06T16:32:06.058Z,76.63
2022-10-06T16:34:32.894Z,77.56
2022-10-06T16:36:59.322Z,77.48
2022-10-06T16:39:25.797Z,77.97
2022-10-06T16:41:52.291Z,77.39
2022-10-06T16:44:18.815Z,77.36
2022-10-06T16:46:45.405Z,76.20
2022-10-06T16:49:12.155Z,76.84
2022-10-06T16:51:39.774Z,77.60
2022-10-06T16:54:07.406Z,77.85
2022-10-06T16:56:38.089Z,78.58
2022-10-06T16:59:06.592Z,80.55
2022-10-06T17:01:34.663Z,79.94
2022-10-06T17:04:05.394Z,79.58
2022-10-06T17:06:33.874Z,79.97
2022-10-06T17:09:00.565Z,80.46
2022-10-06T17:11:27.231Z,80.65
2022-10-06T17:13:55.132Z,81.53
2022-10-06T17:16:23.077Z,81.80
2022-10-06T17:18:50.469Z,82.32
2022-10-06T17:21:43.253Z,82.18
2022-10-06T17:24:05.374Z,82.43
2022-10-06T17:26:32.729Z,82.23
2022-10-06T17:29:00.050Z,80.99
2022-10-06T17:31:32.554Z,81.16
2022-10-06T17:33:59.454Z,81.54
2022-10-06T17:36:26.329Z,82.52
2022-10-06T17:39:02.615Z,82.46
2022-10-06T17:41:30.555Z,82.55
2022-10-06T17:43:59.047Z,84.10
2022-10-06T17:46:26.379Z,84.75
2022-10-06T17:48:54.272Z,83.86
2022-10-06T17:51:22.303Z,82.69
2022-10-06T17:53:49.860Z,84.45
2022-10-06T17:56:17.797Z,85.39
2022-10-06T17:58:46.498Z,84.99
2022-10-06T18:01:14.785Z,85.22
2022-10-06T18:03:42.510Z,84.65
2022-10-06T18:06:11.791Z,85.19
2022-10-06T18:08:39.012Z,86.42
2022-10-06T18:11:24.629Z,86.57
2022-10-06T18:13:51.147Z,87.05
2022-10-06T18:16:25.057Z,88.62
2022-10-06T18:18:52.617Z,87.81
2022-10-06T18:21:20.074Z,87.04
2022-10-06T18:23:47.201Z,86.83
2022-10-06T18:26:17.186Z,87.17
2022-10-06T18:28:48.673Z,88.84
2022-10-06T18:31:16.427Z,87.36
2022-10-06T18:36:30.647Z,87.09
2022-10-06T18:38:57.895Z,87.41
2022-10-06T18:41:27.297Z,87.24
2022-10-06T18:43:57.824Z,88.15
2022-10-06T18:46:43.178Z,88.12
2022-10-06T18:49:15.315Z,89.52
2022-10-06T18:51:43.730Z,89.13
2022-10-06T18:54:15.199Z,89.06
2022-10-06T18:56:42.631Z,88.28
2022-10-06T18:59:12.150Z,89.15
2022-10-06T19:01:39.775Z,88.83
2022-10-06T19:04:09.747Z,89.08
2022-10-06T19:06:37.740Z,88.90
2022-10-06T19:09:05.154Z,90.00
2022-10-06T19:11:41.843Z,90.41
2022-10-06T19:14:08.715Z,91.04
2022-10-06T19:16:35.589Z,90.40
2022-10-06T19:19:10.542Z,90.70
2022-10-06T19:21:40.829Z,91.19
2022-10-06T19:24:08.795Z,92.18
2022-10-06T19:26:35.778Z,92.12
2022-10-06T19:29:03.828Z,93.34
2022-10-06T19:31:30.424Z,93.04
2022-10-06T19:34:01.587Z,93.37
2022-10-06T19:36:29.175Z,92.85
2022-10-06T19:38:57.483Z,92.81
2022-10-06T19:41:43.198Z,92.35
2022-10-06T19:44:09.805Z,92.84
2022-10-06T19:46:37.444Z,92.15
2022-10-06T19:49:05.905Z,92.60
2022-10-06T19:51:34.096Z,92.23
2022-10-06T19:54:02.614Z,93.21
2022-10-06T19:56:30.149Z,92.13
2022-10-06T19:58:58.402Z,92.61
2022-10-06T20:01:25.385Z,92.34
2022-10-06T20:03:51.982Z,93.25
2022-10-06T20:06:19.511Z,92.82
2022-10-06T20:08:46.435Z,92.98
2022-10-06T20:11:14.100Z,94.43
2022-10-06T20:13:41.235Z,95.64
2022-10-06T20:16:10.323Z,95.58
2022-10-06T20:18:43.688Z,94.85
2022-10-06T20:21:18.283Z,93.76
2022-10-06T20:23:49.146Z,94.07
2022-10-06T20:26:17.371Z,93.62
2022-10-06T20:28:44.224Z,92.65
2022-10-06T20:31:16.747Z,92.96
2022-10-06T20:33:46.259Z,92.74
2022-10-06T20:36:13.281Z,93.26
2022-10-06T20:38:58.458Z,92.98
2022-10-06T20:41:25.212Z,92.60
2022-10-06T20:43:53.928Z,93.10
2022-10-06T20:46:21.438Z,93.35
2022-10-06T20:48:49.543Z,94.52
2022-10-06T20:51:16.466Z,95.89
2022-10-06T20:53:42.932Z,96.93
2022-10-06T20:56:09.590Z,96.67
2022-10-06T20:58:36.264Z,95.69
2022-10-06T21:01:06.045Z,95.38
2022-10-06T21:03:33.204Z,94.93
2022-10-06T21:05:59.866Z,95.43
2022-10-06T21:08:26.398Z,95.43
2022-10-06T21:10:56.844Z,96.47
2022-10-06T21:13:23.285Z,96.20
2022-10-06T21:15:50.299Z,95.51
2022-10-06T21:18:17.354Z,95.97
2022-10-06T21:20:45.342Z,96.36
2022-10-06T21:23:13.224Z,96.45
2022-10-06T21:25:39.641Z,95.95
2022-10-06T21:28:06.328Z,95.93
2022-10-06T21:30:33.761Z,96.02
2022-10-06T21:33:00.389Z,96.59
2022-10-06T21:35:26.989Z,96.38
2022-10-06T21:37:53.477Z,95.71
2022-10-06T21:40:19.876Z,95.56
2022-10-06T21:42:46.281Z,95.29
2022-10-06T21:45:12.760Z,95.70
2022-10-06T21:47:39.160Z,95.59
2022-10-06T21:50:05.740Z,96.36
2022-10-06T21:52:32.216Z,96.17
2022-10-06T21:54:58.614Z,97.64
2022-10-06T21:57:25.047Z,98.02
2022-10-06T21:59:51.504Z,96.89
2022-10-06T22:02:17.918Z,96.33
2022-10-06T22:04:44.372Z,97.70
2022-10-06T22:07:10.837Z,97.92
2022-10-06T22:09:37.258Z,97.45
2022-10-06T22:12:04.719Z,97.58
2022-10-06T22:14:31.137Z,97.48
2022-10-06T22:16:57.632Z,96.50
2022-10-06T22:19:24.149Z,96.54
2022-10-06T22:21:50.627Z,97.45
2022-10-06T22:24:18.936Z,97.47
2022-10-06T22:26:45.845Z,97.05
2022-10-06T22:29:13.423Z,96.94
2022-10-06T22:31:41.346Z,97.51
2022-10-06T22:34:09.524Z,97.73
2022-10-06T22:36:36.009Z,98.34
2022-10-06T22:39:03.028Z,98.23
2022-10-06T22:41:29.742Z,98.89
2022-10-06T22:43:57.548Z,99.25
2022-10-06T22:46:25.080Z,99.11
2022-10-06T22:48:51.744Z,98.30
2022-10-06T22:51:18.264Z,97.29
2022-10-06T22:53:44.800Z,96.81
2022-10-06T22:56:11.201Z,96.87
2022-10-06T22:58:38.901Z,96.91
2022-10-06T23:01:09.881Z,97.54
2022-10-06T23:03:36.434Z,97.11
2022-10-06T23:06:02.979Z,96.88
2022-10-06T23:08:34.935Z,96.44
2022-10-06T23:11:05.984Z,96.42
2022-10-06T23:13:32.768Z,95.92
2022-10-06T23:16:07.759Z,96.66
2022-10-06T23:18:35.470Z,98.63
2022-10-06T23:21:02.745Z,98.29
2022-10-06T23:23:29.268Z,97.61
2022-10-06T23:25:55.724Z,97.08
2022-10-06T23:28:22.181Z,96.96
2022-10-06T23:30:48.632Z,96.60
2022-10-06T23:33:15.041Z,96.38
2022-10-06T23:35:41.449Z,95.80
2022-10-06T23:38:10.536Z,95.51
2022-10-06T23:40:37.400Z,96.46
2022-10-06T23:43:03.837Z,97.40
2022-10-06T23:45:30.336Z,98.69
2022-10-06T23:47:56.856Z,99.21
2022-10-06T23:50:23.269Z,99.36
2022-10-06T23:52:49.754Z,98.76
2022-10-06T23:55:16.169Z,98.32
2022-10-06T23:57:42.803Z,98.82
